Seaford, Delaware
Current Conditions -  °F | °C
As of 6:54 PM on Saturday 22 Nov 2014 (Local Time) from KGED Reporting Station
Clear Clear  
Wind Chill: 30°   Ceiling: Unl
Heat Index: 36°   Visibility: 10mi
Dew Point: 24°   Wind: 7mph
Humidity: 62%   Direction: 200°SSW
Pressure: 30.34"   Gusts: NA
Location:  38.64°N, 75.61°W
Report Text: KGED 222354Z AUTO 20006KT 10SM CLR 02/M04 A3034 RMK AO2 SLP272 T00221044 10089 20022 56012
Loading
Personal Weather Stations






























Interactive Weather Map New forecast layout! Learn more

10-Day Weather Forecast

Advertisements
Track Severe Weather on mobile